^^
Datos históricos de la estación: Murcia-Puente Tocinos
Diario Informe para Diciembre 9, 2019 Unidades:  Métrico    Ingés   Ambas
Diario Semanal Mensual Anual
  Máxima: Mínima: Promedio:
Temperatura: 20.4 °C 14.9 °C 17.1 °C
Punto de rocio: 9.3 °C 1.8 °C 6.4 °C
Humedad: 67% 32% 51%
Velocidad viento: 28.2km/h 2.2km/h 11.9km/h
Racha viento: 46.7km/h - -
Viento- - OSO
Presión: 1026.2 hPa 1022.3 hPa -
Precipitación: 0.0 mm    
 
 
Tabla de datos para Diciembre 9, 2019
Hora Temperatura Punto de rocio Presión Viento Velocidad viento Racha viento Humedad Intensidad lluvia(por hora) Nubes
00:04 15.7 °C 8.4 °C 1022.7 hPa SO 11.2 km/h 22.5 km/h 62% 0.0 mm
00:09 15.7 °C 8.4 °C 1022.7 hPa SSO 12.2 km/h 22.2 km/h 62% 0.0 mm
00:14 15.4 °C 8.2 °C 1022.7 hPa SSO 11.1 km/h 22.5 km/h 62.2% 0.0 mm
00:19 15.2 °C 8.4 °C 1022.7 hPa SO 10.3 km/h 16.7 km/h 63.6% 0.0 mm
00:24 15.3 °C 8.5 °C 1022.7 hPa SO 8.7 km/h 16.7 km/h 64% 0.0 mm
00:29 15.3 °C 8.5 °C 1022.7 hPa OSO 7.6 km/h 24.1 km/h 64% 0.0 mm
00:34 15.4 °C 8.6 °C 1022.7 hPa OSO 9.6 km/h 24.1 km/h 64% 0.0 mm
00:39 15.4 °C 8.6 °C 1022.7 hPa OSO 11.1 km/h 28.2 km/h 64% 0.0 mm
00:44 15.5 °C 8.6 °C 1022.5 hPa OSO 11.7 km/h 27.4 km/h 63.8% 0.0 mm
00:49 15.6 °C 8.6 °C 1022.5 hPa OSO 12.2 km/h 25.7 km/h 63% 0.0 mm
00:54 15.6 °C 8.6 °C 1022.6 hPa OSO 12.2 km/h 24.5 km/h 63% 0.0 mm
00:59 15.6 °C 8.6 °C 1022.6 hPa OSO 12.2 km/h 24.1 km/h 63% 0.0 mm
01:04 15.7 °C 8.7 °C 1022.6 hPa SO 11.1 km/h 22.5 km/h 63% 0.0 mm
01:09 15.7 °C 8.7 °C 1022.6 hPa Sur 10.3 km/h 16.1 km/h 63% 0.0 mm
01:14 15.5 °C 8.7 °C 1022.6 hPa Sur 9.4 km/h 12.9 km/h 63.9% 0.0 mm
01:19 15.4 °C 8.6 °C 1022.6 hPa SSO 8.7 km/h 11.9 km/h 64% 0.0 mm
01:24 15.4 °C 8.6 °C 1022.6 hPa Sur 7.7 km/h 18.5 km/h 64% 0.0 mm
01:29 15.3 °C 8.8 °C 1022.6 hPa Sur 6.9 km/h 19.3 km/h 65% 0.0 mm
01:34 15.3 °C 8.7 °C 1022.6 hPa Sur 8.7 km/h 20.4 km/h 64.9% 0.0 mm
01:39 15.5 °C 8.6 °C 1022.6 hPa SSE 10 km/h 20.9 km/h 63.8% 0.0 mm
01:44 15.6 °C 8.6 °C 1022.6 hPa SSO 11.1 km/h 19.3 km/h 63% 0.0 mm
01:49 15.7 °C 8.6 °C 1022.6 hPa OSO 11.9 km/h 17.2 km/h 62.6% 0.0 mm
01:54 15.7 °C 8.6 °C 1022.6 hPa Oeste 10.1 km/h 17.7 km/h 62.8% 0.0 mm
01:59 15.7 °C 8.7 °C 1022.5 hPa ONO 8.7 km/h 19.8 km/h 63% 0.0 mm
02:04 15.7 °C 8.6 °C 1022.5 hPa OSO 8.5 km/h 22.5 km/h 62.7% 0.0 mm
02:09 15.8 °C 8.5 °C 1022.6 hPa OSO 8.4 km/h 35.2 km/h 62% 0.0 mm
02:14 16 °C 8.5 °C 1022.6 hPa OSO 10.9 km/h 35.4 km/h 61% 0.0 mm
02:19 15.9 °C 8.5 °C 1022.6 hPa OSO 13 km/h 22.5 km/h 61.1% 0.0 mm
02:24 15.9 °C 8.6 °C 1022.6 hPa OSO 11.5 km/h 20.4 km/h 62% 0.0 mm
02:29 15.9 °C 8.6 °C 1022.4 hPa OSO 10.3 km/h 20.9 km/h 62% 0.0 mm
02:34 15.9 °C 8.6 °C 1022.4 hPa OSO 9.4 km/h 20.4 km/h 62% 0.0 mm
02:39 15.9 °C 8.6 °C 1022.4 hPa OSO 8.7 km/h 26.2 km/h 62% 0.0 mm
02:44 15.9 °C 8.6 °C 1022.4 hPa OSO 10.7 km/h 25.7 km/h 62% 0.0 mm
02:49 15.9 °C 8.6 °C 1022.4 hPa SO 12.2 km/h 19.3 km/h 62% 0.0 mm
02:54 15.8 °C 8.6 °C 1022.6 hPa SSO 9.6 km/h 19.3 km/h 62% 0.0 mm
02:59 15.8 °C 8.6 °C 1022.6 hPa Sur 7.6 km/h 13 km/h 62% 0.0 mm
03:04 15.7 °C 8.5 °C 1022.6 hPa Sur 6.5 km/h 12.9 km/h 62.2% 0.0 mm
03:09 15.7 °C 8.7 °C 1022.6 hPa SSO 5.8 km/h 10 km/h 63% 0.0 mm
03:14 15.7 °C 8.7 °C 1022.5 hPa SSO 5.8 km/h 14.8 km/h 63% 0.0 mm
03:19 15.8 °C 8.8 °C 1022.5 hPa OSO 5.8 km/h 29.6 km/h 63% 0.0 mm
03:24 16.1 °C 8.9 °C 1022.5 hPa OSO 10.1 km/h 29.6 km/h 62.3% 0.0 mm
03:29 16.3 °C 8.9 °C 1022.3 hPa OSO 13.7 km/h 35.2 km/h 61.4% 0.0 mm
03:34 16.5 °C 9 °C 1022.3 hPa OSO 14.8 km/h 35.4 km/h 61% 0.0 mm
03:39 16.7 °C 8.9 °C 1022.5 hPa SO 15.6 km/h 27.4 km/h 60.2% 0.0 mm
03:44 16.6 °C 8.8 °C 1022.5 hPa SO 13.5 km/h 24.5 km/h 60% 0.0 mm
03:49 16.6 °C 8.8 °C 1022.5 hPa OSO 11.9 km/h 24.1 km/h 60% 0.0 mm
03:54 16.6 °C 8.8 °C 1022.5 hPa OSO 11.9 km/h 20.4 km/h 60% 0.0 mm
03:59 16.5 °C 8.7 °C 1022.3 hPa OSO 11.9 km/h 22.5 km/h 60% 0.0 mm
04:04 16.4 °C 8.7 °C 1022.3 hPa Oeste 11.4 km/h 22.5 km/h 60% 0.0 mm
04:09 16.3 °C 8.7 °C 1022.5 hPa Oeste 11.1 km/h 27 km/h 60.4% 0.0 mm
04:14 16.3 °C 8.8 °C 1022.5 hPa Oeste 10.7 km/h 27.8 km/h 61% 0.0 mm
04:19 16.4 °C 8.8 °C 1022.5 hPa Oeste 10.3 km/h 24.1 km/h 61% 0.0 mm
04:24 16.3 °C 8.8 °C 1022.5 hPa OSO 10.8 km/h 19.3 km/h 61% 0.0 mm
04:29 16.2 °C 8.9 °C 1022.4 hPa SSO 11.1 km/h 14.5 km/h 61.9% 0.0 mm
04:34 15.9 °C 8.7 °C 1022.4 hPa Sur 7.7 km/h 9.5 km/h 62% 0.0 mm
04:39 15.8 °C 8.5 °C 1022.4 hPa Sur 5 km/h 9.7 km/h 62% 0.0 mm
04:44 15.7 °C 8.4 °C 1022.4 hPa SSE 5 km/h 8 km/h 62% 0.0 mm
04:49 15.6 °C 8.3 °C 1022.4 hPa SSE 5 km/h 7.4 km/h 62% 0.0 mm
04:54 15.5 °C 8.2 °C 1022.4 hPa Sur 4.4 km/h 8 km/h 62% 0.0 mm
04:59 15.5 °C 8.2 °C 1022.4 hPa ONO 3.9 km/h 8 km/h 62% 0.0 mm
05:04 15.4 °C 8.4 °C 1022.4 hPa NO 3.9 km/h 11.1 km/h 62.9% 0.0 mm
05:09 15.2 °C 8.5 °C 1022.5 hPa Este 3.9 km/h 11.3 km/h 64.3% 0.0 mm
05:14 15 °C 8.5 °C 1022.5 hPa SSO 4.5 km/h 14.8 km/h 65% 0.0 mm
05:19 15.1 °C 8.6 °C 1022.5 hPa NE 5 km/h 14.5 km/h 65% 0.0 mm
05:24 15.2 °C 8.5 °C 1022.7 hPa ESE 5.4 km/h 9.7 km/h 64.3% 0.0 mm
05:29 15.2 °C 8.6 °C 1022.7 hPa Este 5.8 km/h 12.2 km/h 65% 0.0 mm
05:34 15.2 °C 8.6 °C 1022.7 hPa Este 5.1 km/h 12.9 km/h 64.4% 0.0 mm
05:39 15.3 °C 8.6 °C 1023.0 hPa ESE 4.7 km/h 9.5 km/h 64% 0.0 mm
05:44 15.5 °C 8.7 °C 1023.0 hPa Oeste 4.7 km/h 14 km/h 64% 0.0 mm
05:49 15.6 °C 8.9 °C 1023.0 hPa Oeste 4.7 km/h 22.5 km/h 64% 0.0 mm
05:54 15.8 °C 9 °C 1023.2 hPa Oeste 8.6 km/h 34.3 km/h 64.1% 0.0 mm
05:59 16 °C 9.2 °C 1023.2 hPa Oeste 11.9 km/h 36.2 km/h 64% 0.0 mm
06:04 15.9 °C 9.1 °C 1023.2 hPa Oeste 15 km/h 37 km/h 64% 0.0 mm
06:09 15.8 °C 9.1 °C 1023.2 hPa Oeste 17.2 km/h 45.7 km/h 64.2% 0.0 mm
06:14 15.8 °C 9.2 °C 1023.2 hPa Oeste 19.2 km/h 46.7 km/h 65% 0.0 mm
06:19 15.6 °C 9.2 °C 1023.2 hPa Oeste 20.9 km/h 46.7 km/h 65.4% 0.0 mm
06:24 15.6 °C 9.3 °C 1023.4 hPa Oeste 21.6 km/h 40.7 km/h 66% 0.0 mm
06:29 15.6 °C 9.3 °C 1023.4 hPa Oeste 22.1 km/h 40.2 km/h 66% 0.0 mm
06:34 15.5 °C 9.1 °C 1023.4 hPa Oeste 22.3 km/h 40.7 km/h 65.7% 0.0 mm
06:39 15.5 °C 9.1 °C 1023.4 hPa Oeste 22.5 km/h 40.2 km/h 65.6% 0.0 mm
06:44 15.4 °C 9.1 °C 1023.4 hPa Oeste 22.3 km/h 37 km/h 66% 0.0 mm
06:49 15.4 °C 9.1 °C 1023.4 hPa Oeste 22.1 km/h 37 km/h 66% 0.0 mm
06:54 15.4 °C 9.1 °C 1023.5 hPa Oeste 21 km/h 32.2 km/h 66% 0.0 mm
06:59 15.4 °C 9 °C 1023.5 hPa Oeste 20.1 km/h 29.6 km/h 65.8% 0.0 mm
07:04 15.4 °C 8.8 °C 1023.5 hPa SO 16.5 km/h 29 km/h 65% 0.0 mm
07:09 15.4 °C 8.8 °C 1024.0 hPa Sur 14 km/h 25.7 km/h 65% 0.0 mm
07:14 15.4 °C 8.8 °C 1024.0 hPa SSO 10.8 km/h 17.2 km/h 65% 0.0 mm
07:19 15.3 °C 8.9 °C 1024.0 hPa SSE 8.4 km/h 17.7 km/h 65.4% 0.0 mm
07:24 15.1 °C 8.8 °C 1024.1 hPa Sur 9 km/h 20.4 km/h 66% 0.0 mm
07:29 15 °C 8.9 °C 1024.1 hPa SSE 9.5 km/h 20.9 km/h 66.8% 0.0 mm
07:34 14.9 °C 8.9 °C 1024.1 hPa Sur 10 km/h 27 km/h 67% 0.0 mm
07:39 14.9 °C 8.8 °C 1024.2 hPa OSO 10.3 km/h 28.2 km/h 66.6% 0.0 mm
07:44 15.1 °C 8.8 °C 1024.2 hPa OSO 10.3 km/h 27.4 km/h 66% 0.0 mm
07:49 15.1 °C 8.8 °C 1024.2 hPa OSO 10.3 km/h 24.5 km/h 66% 0.0 mm
07:54 15.1 °C 8.8 °C 1024.2 hPa OSO 11.2 km/h 24.1 km/h 66% 0.0 mm
07:59 15.1 °C 8.7 °C 1024.2 hPa OSO 11.9 km/h 33.3 km/h 65.8% 0.0 mm
08:04 15.2 °C 8.7 °C 1024.2 hPa SO 12.9 km/h 33.8 km/h 65% 0.0 mm
08:09 15.2 °C 8.7 °C 1024.2 hPa SO 13.7 km/h 33.3 km/h 65% 0.0 mm
08:14 15.2 °C 8.7 °C 1024.2 hPa SO 13.9 km/h 33.8 km/h 65% 0.0 mm
08:19 15.2 °C 8.6 °C 1024.2 hPa OSO 14 km/h 25.9 km/h 65% 0.0 mm
08:24 15.1 °C 8.6 °C 1024.2 hPa OSO 13.5 km/h 25.9 km/h 65% 0.0 mm
08:29 15 °C 8.7 °C 1024.2 hPa OSO 13 km/h 25.7 km/h 65.8% 0.0 mm
08:34 14.9 °C 8.6 °C 1024.2 hPa OSO 11.9 km/h 24.1 km/h 66% 0.0 mm
08:39 15 °C 8.5 °C 1024.3 hPa OSO 11.1 km/h 28.2 km/h 65.3% 0.0 mm
08:44 15 °C 8.5 °C 1024.3 hPa OSO 13.1 km/h 27.8 km/h 65% 0.0 mm
08:49 15.1 °C 8.6 °C 1024.3 hPa Oeste 14.8 km/h 31.5 km/h 65% 0.0 mm
08:54 15.2 °C 8.5 °C 1024.4 hPa Oeste 16.2 km/h 32.2 km/h 64.3% 0.0 mm
08:59 15.2 °C 8.4 °C 1024.4 hPa Oeste 17.2 km/h 33.5 km/h 64% 0.0 mm
09:04 15.2 °C 8.4 °C 1024.4 hPa Oeste 18.9 km/h 37 km/h 64% 0.0 mm
09:09 15.1 °C 8.3 °C 1024.7 hPa Oeste 20.1 km/h 37 km/h 64% 0.0 mm
09:14 15 °C 8.2 °C 1024.7 hPa Oeste 19.5 km/h 36.2 km/h 64% 0.0 mm
09:19 14.9 °C 8.2 °C 1024.7 hPa Oeste 19 km/h 37 km/h 64% 0.0 mm
09:24 14.9 °C 8.2 °C 1024.7 hPa Oeste 19.6 km/h 37 km/h 64% 0.0 mm
09:29 15.1 °C 8.1 °C 1024.6 hPa Oeste 20.1 km/h 38.9 km/h 63% 0.0 mm
09:34 15.1 °C 8.1 °C 1024.6 hPa Oeste 22.1 km/h 43.9 km/h 62.9% 0.0 mm
09:39 15.2 °C 8 °C 1024.8 hPa Oeste 23.7 km/h 45.1 km/h 62% 0.0 mm
09:44 15.2 °C 8.2 °C 1024.8 hPa Oeste 22.6 km/h 45.1 km/h 63% 0.0 mm
09:49 15.2 °C 8.2 °C 1024.8 hPa Oeste 21.7 km/h 29 km/h 63% 0.0 mm
09:54 15.2 °C 8.2 °C 1025.2 hPa Oeste 17.4 km/h 29.8 km/h 63% 0.0 mm
09:59 15.2 °C 8.2 °C 1025.2 hPa Oeste 14 km/h 30.6 km/h 63% 0.0 mm
10:04 15.2 °C 8.1 °C 1025.2 hPa Oeste 14 km/h 33.3 km/h 62.4% 0.0 mm
10:09 15.3 °C 8.1 °C 1025.4 hPa Oeste 14 km/h 33.8 km/h 62% 0.0 mm
10:14 15.4 °C 8.1 °C 1025.4 hPa Oeste 15.9 km/h 33.3 km/h 61.6% 0.0 mm
10:19 15.6 °C 8.1 °C 1025.4 hPa Oeste 17.2 km/h 33.8 km/h 61% 0.0 mm
10:24 15.7 °C 8.2 °C 1025.7 hPa OSO 16.3 km/h 32.2 km/h 61% 0.0 mm
10:29 15.8 °C 8.1 °C 1025.7 hPa Oeste 15.6 km/h 25.9 km/h 60.1% 0.0 mm
10:34 16 °C 7.9 °C 1025.7 hPa Oeste 15.6 km/h 33.5 km/h 59% 0.0 mm
10:39 16.1 °C 7.9 °C 1025.7 hPa OSO 15.6 km/h 33.8 km/h 58.3% 0.0 mm
10:44 16.3 °C 8 °C 1025.7 hPa OSO 14.7 km/h 29 km/h 58% 0.0 mm
10:49 16.3 °C 8 °C 1025.7 hPa OSO 14 km/h 24.5 km/h 58% 0.0 mm
10:54 16.4 °C 8 °C 1026.1 hPa Oeste 12.4 km/h 24.5 km/h 57.8% 0.0 mm
10:59 16.4 °C 7.8 °C 1026.1 hPa OSO 11.1 km/h 27.8 km/h 56.6% 0.0 mm
11:04 16.5 °C 7.6 °C 1026.1 hPa OSO 12.8 km/h 27.4 km/h 55.8% 0.0 mm
11:09 16.7 °C 7.6 °C 1026.1 hPa SO 14 km/h 22.5 km/h 55% 0.0 mm
11:14 16.7 °C 7.6 °C 1026.0 hPa OSO 13.4 km/h 23.3 km/h 55% 0.0 mm
11:19 16.7 °C 7.6 °C 1026.0 hPa OSO 13 km/h 25.9 km/h 55% 0.0 mm
11:24 16.7 °C 7.8 °C 1026.0 hPa Oeste 13 km/h 25.7 km/h 55.8% 0.0 mm
11:29 16.7 °C 7.7 °C 1026.0 hPa OSO 13 km/h 22.5 km/h 55.4% 0.0 mm
11:34 16.8 °C 7.6 °C 1026.0 hPa Oeste 12.6 km/h 22.5 km/h 54.8% 0.0 mm
11:39 16.8 °C 7.7 °C 1026.0 hPa Oeste 12.2 km/h 22.5 km/h 54.8% 0.0 mm
11:44 16.9 °C 7.4 °C 1026.0 hPa SO 10.7 km/h 27.8 km/h 53.5% 0.0 mm
11:49 17.1 °C 7.4 °C 1026.0 hPa OSO 9.5 km/h 27.4 km/h 53% 0.0 mm
11:54 17.2 °C 7.6 °C 1026.0 hPa OSO 9.9 km/h 19.3 km/h 53% 0.0 mm
11:59 17.4 °C 7.3 °C 1025.9 hPa OSO 10.3 km/h 20.9 km/h 51.6% 0.0 mm
12:04 17.5 °C 7 °C 1025.9 hPa ONO 10.1 km/h 22.2 km/h 50.1% 0.0 mm
12:09 17.6 °C 6.8 °C 1025.9 hPa Oeste 10 km/h 24.5 km/h 49.1% 0.0 mm
12:14 17.7 °C 6.7 °C 1025.7 hPa Oeste 11.3 km/h 24.1 km/h 48.5% 0.0 mm
12:19 17.9 °C 6.1 °C 1025.7 hPa Oeste 12.2 km/h 33.3 km/h 46.1% 0.0 mm
12:24 18 °C 5.8 °C 1025.7 hPa Oeste 14.4 km/h 33.8 km/h 44.6% 0.0 mm
12:29 18.1 °C 5.6 °C 1025.5 hPa Oeste 16.1 km/h 35.9 km/h 43.8% 0.0 mm
12:34 18.1 °C 5.4 °C 1025.5 hPa Oeste 16.3 km/h 35.4 km/h 43% 0.0 mm
12:39 18.2 °C 5.4 °C 1025.5 hPa Oeste 16.4 km/h 35.2 km/h 43% 0.0 mm
12:44 18.3 °C 5.6 °C 1025.1 hPa Oeste 18.4 km/h 35.4 km/h 43.4% 0.0 mm
12:49 18.4 °C 5.2 °C 1025.1 hPa OSO 19.8 km/h 39.6 km/h 41.8% 0.0 mm
12:54 18.4 °C 5.1 °C 1025.1 hPa OSO 19.8 km/h 40.2 km/h 41.7% 0.0 mm
12:59 18.5 °C 5.4 °C 1024.9 hPa OSO 19.8 km/h 30.6 km/h 42.1% 0.0 mm
13:04 18.6 °C 5.5 °C 1024.9 hPa OSO 18.3 km/h 35.9 km/h 42% 0.0 mm
13:09 18.7 °C 5.2 °C 1024.9 hPa OSO 17.2 km/h 35.4 km/h 41% 0.0 mm
13:14 18.8 °C 5.3 °C 1024.4 hPa Oeste 18.6 km/h 38.9 km/h 40.9% 0.0 mm
13:19 18.8 °C 5.1 °C 1024.4 hPa Oeste 19.8 km/h 40.7 km/h 40.4% 0.0 mm
13:24 18.9 °C 4.7 °C 1024.4 hPa ONO 22.4 km/h 40.2 km/h 39.4% 0.0 mm
13:29 18.9 °C 4.4 °C 1024.1 hPa ONO 24.5 km/h 46.3 km/h 38.5% 0.0 mm
13:34 18.9 °C 4.9 °C 1024.1 hPa ONO 25.1 km/h 46.7 km/h 39.9% 0.0 mm
13:39 18.9 °C 5 °C 1024.1 hPa ONO 25.6 km/h 32.2 km/h 39.9% 0.0 mm
13:44 18.9 °C 5 °C 1024.1 hPa ONO 20.2 km/h 27.4 km/h 40% 0.0 mm
13:49 19.1 °C 4.9 °C 1024.1 hPa Oeste 16.1 km/h 25.9 km/h 39.1% 0.0 mm
13:54 19.2 °C 5.1 °C 1024.1 hPa ONO 14 km/h 25.7 km/h 39.6% 0.0 mm
13:59 19.3 °C 5.1 °C 1023.9 hPa Oeste 12.2 km/h 27.8 km/h 39.1% 0.0 mm
14:04 19.4 °C 5.1 °C 1023.9 hPa Oeste 13.3 km/h 27.4 km/h 39.1% 0.0 mm
14:09 19.4 °C 5.1 °C 1023.9 hPa OSO 14 km/h 22.5 km/h 39.2% 0.0 mm
14:14 19.4 °C 5.3 °C 1023.7 hPa OSO 13.5 km/h 22.2 km/h 39.5% 0.0 mm
14:19 19.4 °C 5.4 °C 1023.7 hPa OSO 13 km/h 22.5 km/h 39.9% 0.0 mm
14:24 19.4 °C 5.6 °C 1023.7 hPa OSO 11.5 km/h 19.3 km/h 40.2% 0.0 mm
14:29 19.5 °C 5.6 °C 1023.7 hPa OSO 10.3 km/h 17.7 km/h 40% 0.0 mm
14:34 19.6 °C 5.5 °C 1023.7 hPa OSO 9.4 km/h 19 km/h 39.6% 0.0 mm
14:39 19.6 °C 5.4 °C 1023.7 hPa Oeste 8.7 km/h 19.3 km/h 39.5% 0.0 mm
14:44 19.6 °C 5.3 °C 1023.6 hPa Oeste 9.4 km/h 17.7 km/h 39% 0.0 mm
14:49 19.6 °C 5.4 °C 1023.6 hPa Oeste 10 km/h 16.7 km/h 39.4% 0.0 mm
14:54 19.6 °C 5.5 °C 1023.6 hPa OSO 9.3 km/h 13 km/h 39.7% 0.0 mm
14:59 19.6 °C 5.3 °C 1023.4 hPa SO 8.7 km/h 13 km/h 39% 0.0 mm
15:04 19.7 °C 5.2 °C 1023.4 hPa SO 7.6 km/h 18.5 km/h 38.4% 0.0 mm
15:09 19.8 °C 5.2 °C 1023.4 hPa OSO 6.9 km/h 19.3 km/h 38.1% 0.0 mm
15:14 19.9 °C 5.2 °C 1023.0 hPa OSO 7.8 km/h 14.8 km/h 38.1% 0.0 mm
15:19 19.9 °C 5.3 °C 1023.0 hPa SO 8.4 km/h 14.8 km/h 38.4% 0.0 mm
15:24 20.1 °C 5.7 °C 1023.1 hPa OSO 8.5 km/h 14.8 km/h 39% 0.0 mm
15:29 20 °C 5.6 °C 1023.1 hPa OSO 8.7 km/h 14.8 km/h 39.1% 0.0 mm
15:34 19.9 °C 5.7 °C 1023.1 hPa Oeste 7.7 km/h 14.5 km/h 39.4% 0.0 mm
15:39 20 °C 6 °C 1023.1 hPa SO 6.9 km/h 11.9 km/h 40.2% 0.0 mm
15:44 20 °C 6 °C 1023.1 hPa Oeste 6.3 km/h 11.3 km/h 40% 0.0 mm
15:49 20.1 °C 6 °C 1023.1 hPa Oeste 5.8 km/h 9.7 km/h 40% 0.0 mm
15:54 20.2 °C 6.1 °C 1023.2 hPa Oeste 4.7 km/h 8 km/h 40% 0.0 mm
15:59 20.3 °C 6.3 °C 1023.2 hPa Oeste 3.9 km/h 5.8 km/h 40.2% 0.0 mm
16:04 20.4 °C 6.2 °C 1023.2 hPa Oeste 2.9 km/h 6.4 km/h 39.7% 0.0 mm
16:09 20.4 °C 6.3 °C 1023.2 hPa Oeste 2.2 km/h 9.3 km/h 40% 0.0 mm
16:14 20.3 °C 6.4 °C 1023.0 hPa OSO 3.2 km/h 9.7 km/h 40.4% 0.0 mm
16:19 20.3 °C 6.6 °C 1023.0 hPa OSO 3.9 km/h 8 km/h 41% 0.0 mm
16:24 20.3 °C 6.5 °C 1023.1 hPa OSO 2.9 km/h 8 km/h 40.7% 0.0 mm
16:29 20.3 °C 6.5 °C 1023.1 hPa Oeste 2.2 km/h 8.7 km/h 40.6% 0.0 mm
16:34 20.3 °C 6.5 °C 1023.1 hPa ONO 3.6 km/h 9.7 km/h 40.7% 0.0 mm
16:39 20.3 °C 6.3 °C 1023.1 hPa Oeste 4.6 km/h 13.7 km/h 40.3% 0.0 mm
16:44 20.2 °C 6.1 °C 1023.1 hPa Oeste 5.3 km/h 14.5 km/h 39.9% 0.0 mm
16:49 20.1 °C 5.8 °C 1023.1 hPa Oeste 5.8 km/h 14.8 km/h 39.4% 0.0 mm
16:54 20 °C 6 °C 1023.1 hPa Oeste 6.8 km/h 14.5 km/h 40% 0.0 mm
16:59 20 °C 6 °C 1023.0 hPa Oeste 7.6 km/h 11.9 km/h 40% 0.0 mm
17:04 19.9 °C 5.9 °C 1023.0 hPa Oeste 7.2 km/h 13 km/h 40% 0.0 mm
17:09 19.9 °C 5.8 °C 1023.1 hPa Oeste 6.9 km/h 13 km/h 39.7% 0.0 mm
17:14 19.9 °C 5.5 °C 1023.1 hPa OSO 6.9 km/h 13 km/h 39.1% 0.0 mm
17:19 19.9 °C 5.5 °C 1023.1 hPa OSO 6.9 km/h 11.3 km/h 39% 0.0 mm
17:24 19.8 °C 5.4 °C 1023.1 hPa SO 6.9 km/h 13 km/h 39% 0.0 mm
17:29 19.7 °C 5.2 °C 1023.0 hPa SO 6.9 km/h 13 km/h 38.7% 0.0 mm
17:34 19.7 °C 5 °C 1023.0 hPa SO 7.3 km/h 13 km/h 38% 0.0 mm
17:39 19.7 °C 4.9 °C 1023.2 hPa OSO 7.6 km/h 11.3 km/h 38% 0.0 mm
17:44 19.6 °C 4.9 °C 1023.2 hPa OSO 6.6 km/h 9.7 km/h 38% 0.0 mm
17:49 19.5 °C 4.8 °C 1023.2 hPa Oeste 5.8 km/h 9.7 km/h 38% 0.0 mm
17:54 19.4 °C 4.5 °C 1023.5 hPa ONO 5.3 km/h 16.7 km/h 37.3% 0.0 mm
17:59 19.4 °C 4.1 °C 1023.5 hPa ONO 5 km/h 16.1 km/h 36.4% 0.0 mm
18:04 19.4 °C 3.7 °C 1023.5 hPa Oeste 7.2 km/h 15.6 km/h 35.3% 0.0 mm
18:09 19.4 °C 3.1 °C 1023.5 hPa Oeste 8.7 km/h 16.7 km/h 34.1% 0.0 mm
18:14 19.4 °C 3.1 °C 1023.2 hPa Oeste 9.6 km/h 16.7 km/h 33.9% 0.0 mm
18:19 19.4 °C 2.7 °C 1023.2 hPa Oeste 10.3 km/h 16.1 km/h 33.1% 0.0 mm
18:24 19.4 °C 2.7 °C 1023.3 hPa Oeste 9.2 km/h 16.1 km/h 33% 0.0 mm
18:29 19.4 °C 2.5 °C 1023.3 hPa ONO 8.4 km/h 16.7 km/h 32.4% 0.0 mm
18:34 19.4 °C 2.3 °C 1023.3 hPa ONO 8.4 km/h 14.5 km/h 32% 0.0 mm
18:39 19.3 °C 2.5 °C 1023.6 hPa NO 8.4 km/h 9.7 km/h 32.6% 0.0 mm
18:44 19.1 °C 2.7 °C 1023.6 hPa North 6.3 km/h 10 km/h 33.7% 0.0 mm
18:49 18.7 °C 3.4 °C 1023.6 hPa ENE 4.7 km/h 10 km/h 36.2% 0.0 mm
18:54 18.2 °C 3.9 °C 1023.9 hPa Este 5.9 km/h 9.7 km/h 38.5% 0.0 mm
18:59 18 °C 3.3 °C 1023.9 hPa Este 6.9 km/h 9.7 km/h 37.5% 0.0 mm
19:04 18.1 °C 3.1 °C 1023.9 hPa Este 5.8 km/h 8 km/h 36.7% 0.0 mm
19:09 18.2 °C 2.4 °C 1024.1 hPa NE 5 km/h 8 km/h 34.9% 0.0 mm
19:14 18.3 °C 2.1 °C 1024.1 hPa NO 4.8 km/h 8.4 km/h 34% 0.0 mm
19:19 18.4 °C 1.8 °C 1024.1 hPa ONO 4.7 km/h 11.9 km/h 33.1% 0.0 mm
19:24 18.4 °C 1.8 °C 1024.2 hPa ONO 5.9 km/h 13.7 km/h 33% 0.0 mm
19:29 18.3 °C 2.1 °C 1024.2 hPa Oeste 6.9 km/h 14.5 km/h 33.8% 0.0 mm
19:34 18.2 °C 2 °C 1024.2 hPa OSO 5.6 km/h 8 km/h 34% 0.0 mm
19:39 18.1 °C 2.1 °C 1024.6 hPa SSO 4.7 km/h 7.4 km/h 34.5% 0.0 mm
19:44 17.8 °C 2.7 °C 1024.6 hPa Este 3.8 km/h 10.3 km/h 36.5% 0.0 mm
19:49 17.5 °C 2.5 °C 1024.6 hPa ESE 3.2 km/h 11.3 km/h 36.7% 0.0 mm
19:54 17.4 °C 2.4 °C 1024.8 hPa SE 4.7 km/h 9.7 km/h 36.6% 0.0 mm
19:59 17.6 °C 2.1 °C 1024.8 hPa SO 5.8 km/h 16.4 km/h 35.2% 0.0 mm
20:04 18.1 °C 2.4 °C 1024.8 hPa SO 7.3 km/h 18 km/h 35.1% 0.0 mm
20:09 18.1 °C 2.8 °C 1025.0 hPa OSO 8.4 km/h 18.5 km/h 36% 0.0 mm
20:14 18.1 °C 2.7 °C 1025.0 hPa OSO 10.4 km/h 24.1 km/h 36% 0.0 mm
20:19 18.1 °C 2.6 °C 1025.0 hPa OSO 11.9 km/h 26.2 km/h 35.6% 0.0 mm
20:24 18.2 °C 2.5 °C 1025.1 hPa OSO 13.6 km/h 25.7 km/h 35% 0.0 mm
20:29 18.2 °C 2.5 °C 1025.1 hPa OSO 14.8 km/h 24.1 km/h 35% 0.0 mm
20:34 18.2 °C 2.2 °C 1025.1 hPa Oeste 13.2 km/h 22.5 km/h 34.3% 0.0 mm
20:39 18.2 °C 2.1 °C 1025.5 hPa Oeste 11.9 km/h 33.5 km/h 34% 0.0 mm
20:44 18.3 °C 2.2 °C 1025.5 hPa Oeste 12.8 km/h 33.8 km/h 34% 0.0 mm
20:49 18.2 °C 2.1 °C 1025.5 hPa Oeste 13.7 km/h 25.7 km/h 34.2% 0.0 mm
20:54 18 °C 2.3 °C 1025.6 hPa Oeste 14.3 km/h 27.8 km/h 35% 0.0 mm
20:59 18 °C 2.3 °C 1025.6 hPa Oeste 14.8 km/h 29.6 km/h 35% 0.0 mm
21:04 17.9 °C 2.1 °C 1025.6 hPa ONO 16.9 km/h 39.6 km/h 34.8% 0.0 mm
21:09 17.9 °C 1.8 °C 1025.6 hPa Oeste 18.4 km/h 40.2 km/h 34% 0.0 mm
21:14 18 °C 1.8 °C 1025.4 hPa Oeste 24 km/h 42.6 km/h 33.8% 0.0 mm
21:19 17.9 °C 1.8 °C 1025.4 hPa ONO 28.2 km/h 44.4 km/h 34% 0.0 mm
21:24 17.9 °C 1.8 °C 1025.5 hPa ONO 26.5 km/h 45.1 km/h 34.1% 0.0 mm
21:29 17.8 °C 2.1 °C 1025.5 hPa Oeste 25.1 km/h 37 km/h 35% 0.0 mm
21:34 17.7 °C 2.2 °C 1025.5 hPa ONO 21.3 km/h 37 km/h 35.5% 0.0 mm
21:39 17.5 °C 2.2 °C 1025.8 hPa Oeste 18.4 km/h 33.8 km/h 36% 0.0 mm
21:44 17.3 °C 2.3 °C 1025.8 hPa Oeste 16.9 km/h 27.4 km/h 36.7% 0.0 mm
21:49 17.2 °C 2.5 °C 1025.8 hPa Oeste 15.6 km/h 26.2 km/h 37.4% 0.0 mm
21:54 17 °C 2.5 °C 1026.1 hPa Oeste 14.7 km/h 34.3 km/h 38% 0.0 mm
21:59 16.8 °C 2.7 °C 1026.1 hPa OSO 14 km/h 33.8 km/h 38.6% 0.0 mm
22:04 16.7 °C 2.8 °C 1026.1 hPa OSO 12.9 km/h 22.5 km/h 39.4% 0.0 mm
22:09 16.4 °C 2.8 °C 1026.1 hPa OSO 12.2 km/h 20.9 km/h 40.1% 0.0 mm
22:14 16.3 °C 3.1 °C 1025.8 hPa OSO 12.2 km/h 20.9 km/h 41% 0.0 mm
22:19 16.3 °C 3.2 °C 1025.8 hPa OSO 12.2 km/h 20.1 km/h 41.5% 0.0 mm
22:24 16.2 °C 3.5 °C 1026.2 hPa OSO 10.9 km/h 20.9 km/h 42.6% 0.0 mm
22:29 16.2 °C 3.6 °C 1026.2 hPa Oeste 10 km/h 22.2 km/h 43.2% 0.0 mm
22:34 16.1 °C 3.8 °C 1026.2 hPa Oeste 9.7 km/h 22.5 km/h 44% 0.0 mm
22:39 16.1 °C 4 °C 1026.2 hPa Oeste 9.5 km/h 28.6 km/h 44.4% 0.0 mm
22:44 16.2 °C 4.2 °C 1026.2 hPa Oeste 11.9 km/h 29.6 km/h 45% 0.0 mm
22:49 16.1 °C 4.2 °C 1026.2 hPa Oeste 13.7 km/h 29.8 km/h 45% 0.0 mm
22:54 16.1 °C 4.3 °C 1026.2 hPa Oeste 15.2 km/h 30.6 km/h 45.5% 0.0 mm
22:59 16 °C 4.4 °C 1026.0 hPa Oeste 16.4 km/h 33.3 km/h 46% 0.0 mm
23:04 16 °C 4.4 °C 1026.0 hPa Oeste 17.4 km/h 33.8 km/h 46% 0.0 mm
23:09 15.9 °C 4.3 °C 1026.0 hPa Oeste 18 km/h 29 km/h 46% 0.0 mm
23:14 15.8 °C 4.5 °C 1025.8 hPa Oeste 16.1 km/h 33.3 km/h 47% 0.0 mm
23:19 15.8 °C 4.5 °C 1025.8 hPa Oeste 14.8 km/h 33.8 km/h 47% 0.0 mm
23:24 15.7 °C 4.4 °C 1025.8 hPa Oeste 16.8 km/h 33.8 km/h 47% 0.0 mm
23:29 15.7 °C 4.7 °C 1025.7 hPa Oeste 18.4 km/h 35.2 km/h 47.8% 0.0 mm
23:34 15.6 °C 4.6 °C 1025.7 hPa Oeste 17.7 km/h 35.4 km/h 48% 0.0 mm
23:39 15.6 °C 4.6 °C 1025.7 hPa Oeste 17.2 km/h 33.8 km/h 48% 0.0 mm
23:44 15.6 °C 4.6 °C 1025.6 hPa OSO 17.7 km/h 35.2 km/h 48% 0.0 mm
23:49 15.6 °C 4.6 °C 1025.6 hPa Oeste 18 km/h 35.4 km/h 48% 0.0 mm
23:54 15.7 °C 4.7 °C 1025.8 hPa Oeste 17.6 km/h 32.2 km/h 48% 0.0 mm
23:59 15.7 °C 4.5 °C 1025.8 hPa OSO 17.2 km/h 32.2 km/h 47.3% 0.0 mm
Murcia-Puente Tocinos, España
Compliments of Weather Underground - 3 mb

La estación de MeteoMurcia.com, publica sus datos en los siguientes proyectos:

Weather Underground PWS IMURCIAP2 Meteoclimatic www.awekas.at

W3Counter
Web Analytics